Time;durP1;ratioP1;P1;durP2;ratioP2;P2;SDS_P1;SDS_P2;PMS_P1;PMS_P2;Temp;Humidity;BMP_temperature;BMP_pressure;BME280_temperature;BME280_humidity;BME280_pressure;Samples;Min_cycle;Max_cycle;Signal;HPM_P1;HPM_P2
2022/05/02 00:14:39;;;;;;;9.63;7.75;;;;;;;12.22;68.21;100025.81;1085068;54;20053;-82
2022/05/02 00:15:51;;;;;;;8.65;7.45;;;;;;;12.24;68.14;100020.28;1088707;54;20025;-82
2022/05/02 00:16:53;;;;;;;10.70;8.02;;;;;;;12.19;68.14;100023.44;1088660;54;20051;-84
2022/05/02 00:17:57;;;;;;;9.52;8.15;;;;;;;12.08;68.76;100021.03;1088777;54;20033;-81
2022/05/02 00:19:01;;;;;;;10.07;8.95;;;;;;;12.01;69.25;100026.16;1088660;54;20706;-82
2022/05/02 00:20:04;;;;;;;10.60;8.93;;;;;;;11.91;69.52;100028.06;1088702;54;20034;-82
2022/05/02 00:21:09;;;;;;;11.20;9.45;;;;;;;11.84;69.89;100026.00;1088666;54;20030;-84
2022/05/02 00:22:14;;;;;;;9.93;8.93;;;;;;;11.84;69.87;100027.81;1088656;54;20019;-83
2022/05/02 00:23:18;;;;;;;10.88;9.35;;;;;;;11.79;70.21;100028.28;1088681;54;20729;-81
2022/05/02 00:24:28;;;;;;;11.27;9.50;;;;;;;11.78;70.57;100018.56;1088616;54;20018;-83
2022/05/02 00:25:33;;;;;;;10.63;8.73;;;;;;;11.78;69.98;100023.09;1088559;54;20019;-83
2022/05/02 00:26:35;;;;;;;11.88;10.23;;;;;;;11.68;70.52;100024.00;1088509;54;20034;-83
2022/05/02 00:27:41;;;;;;;11.75;10.07;;;;;;;11.55;71.14;100015.50;1088488;54;20098;-85
2022/05/02 00:28:43;;;;;;;10.90;9.52;;;;;;;11.51;71.30;100019.47;1088421;54;20026;-82
2022/05/02 00:29:48;;;;;;;11.73;10.35;;;;;;;11.50;71.74;100018.63;1088403;54;20760;-82
2022/05/02 00:30:55;;;;;;;11.02;9.63;;;;;;;11.48;72.10;100019.78;1090452;39;20650;-82
2022/05/02 00:31:56;;;;;;;11.45;9.88;;;;;;;11.48;71.84;100025.13;1088553;54;20042;-84
2022/05/02 00:33:02;;;;;;;12.10;10.25;;;;;;;11.45;72.03;100020.94;1088632;54;20054;-83
2022/05/02 00:34:04;;;;;;;11.40;9.32;;;;;;;11.49;71.83;100024.97;1088636;54;20026;-82
2022/05/02 00:35:20;;;;;;;12.75;10.35;;;;;;;11.44;72.55;100016.56;1088636;54;20027;-83
2022/05/02 00:36:22;;;;;;;10.63;9.52;;;;;;;11.45;72.11;100022.75;1088687;54;20007;-82
2022/05/02 00:37:26;;;;;;;12.18;9.90;;;;;;;11.46;71.74;100019.09;1088618;54;20682;-83
2022/05/02 00:38:36;;;;;;;12.93;10.23;;;;;;;11.39;72.44;100014.34;1088406;54;20018;-83
2022/05/02 00:39:38;;;;;;;11.93;10.20;;;;;;;11.30;72.75;100015.25;1088710;54;20026;-84
2022/05/02 00:54:34;;;;;;;11.98;10.05;;;;;;;11.05;74.11;100006.91;1088159;54;20046;-84
2022/05/02 01:02:35;;;;;;;12.65;9.65;;;;;;;11.14;73.63;100009.72;1087637;54;20038;-78
2022/05/02 01:03:37;;;;;;;13.98;10.07;;;;;;;11.12;73.37;100011.69;1088127;54;20026;-79
2022/05/02 01:04:42;;;;;;;10.80;9.68;;;;;;;11.11;73.70;100010.00;1087809;54;20057;-78
2022/05/02 01:07:11;;;;;;;14.05;10.50;;;;;;;11.02;74.13;100007.22;1088239;54;20049;-79
2022/05/02 01:08:15;;;;;;;11.57;10.38;;;;;;;11.07;73.87;100010.28;1089339;46;20090;-78
2022/05/02 01:09:17;;;;;;;11.38;9.77;;;;;;;11.06;74.03;100016.63;1090964;46;20045;-79
2022/05/02 01:10:25;;;;;;;11.52;9.77;;;;;;;11.02;74.33;100012.59;1088330;54;20034;-79
2022/05/02 01:11:27;;;;;;;11.95;10.60;;;;;;;11.02;74.05;100007.22;1092204;46;20050;-80
2022/05/02 01:12:31;;;;;;;13.07;10.50;;;;;;;11.03;74.37;100008.91;1088320;54;20033;-80
2022/05/02 01:13:35;;;;;;;13.20;10.80;;;;;;;11.05;74.01;100011.44;1088265;54;20061;-80
2022/05/02 01:14:41;;;;;;;11.55;9.85;;;;;;;11.05;73.97;100003.41;1088313;54;20034;-80
2022/05/02 01:15:43;;;;;;;10.95;9.35;;;;;;;11.07;74.18;100012.97;1088321;54;20038;-79
2022/05/02 01:16:47;;;;;;;11.68;10.32;;;;;;;11.01;74.32;100008.22;1088359;54;20022;-80
2022/05/02 01:17:51;;;;;;;12.13;10.25;;;;;;;10.96;74.63;100004.31;1088237;54;20019;-79
2022/05/02 01:18:55;;;;;;;12.55;10.52;;;;;;;10.97;74.46;100006.00;1088930;46;20058;-78
2022/05/02 01:19:59;;;;;;;13.02;10.75;;;;;;;10.98;74.33;100005.84;1088214;54;20034;-80
2022/05/02 01:21:07;;;;;;;11.40;10.15;;;;;;;10.99;74.65;100001.34;1091218;46;20057;-79
2022/05/02 01:22:12;;;;;;;13.60;10.43;;;;;;;11.00;74.41;100003.03;1088038;54;20023;-80
2022/05/02 01:23:16;;;;;;;12.25;9.93;;;;;;;10.99;74.31;100002.16;1088282;54;20026;-79
2022/05/02 01:24:21;;;;;;;11.25;9.60;;;;;;;11.16;73.75;100003.22;1088317;54;20022;-79
2022/05/02 01:26:29;;;;;;;9.25;7.97;;;;;;;11.38;72.94;99993.91;1088536;54;20018;-86
2022/05/02 01:28:43;;;;;;;8.70;7.32;;;;;;;11.47;72.64;99986.81;1088358;54;20041;-85
2022/05/02 01:33:57;;;;;;;9.45;8.43;;;;;;;11.53;71.98;99983.53;1088306;54;20049;-84
2022/05/02 01:35:04;;;;;;;10.57;9.05;;;;;;;11.39;72.67;99976.88;1075664;54;21006;-85
2022/05/02 01:37:30;;;;;;;10.10;8.90;;;;;;;11.46;72.35;99978.94;1069921;54;20897;31
2022/05/02 01:39:38;;;;;;;10.93;8.73;;;;;;;11.45;72.31;99977.25;1069855;54;19942;31
2022/05/02 01:40:43;;;;;;;11.18;8.98;;;;;;;11.45;72.19;99979.91;1070442;54;20985;31
2022/05/02 01:42:50;;;;;;;11.60;8.75;;;;;;;11.46;72.26;99981.59;1070121;54;21098;31
2022/05/02 01:43:53;;;;;;;10.30;8.88;;;;;;;11.45;72.29;99971.88;1070322;54;20996;31
2022/05/02 01:46:01;;;;;;;12.70;9.70;;;;;;;11.33;72.53;99977.50;1074814;54;22164;31
2022/05/02 01:47:10;;;;;;;12.07;9.57;;;;;;;11.20;72.77;99979.66;1070554;54;20056;31
2022/05/02 01:49:19;;;;;;;20.60;10.55;;;;;;;11.03;73.53;99987.53;1073727;54;20042;31
2022/05/02 01:50:22;;;;;;;11.00;9.43;;;;;;;11.01;73.84;99980.63;1074214;54;21080;31
2022/05/02 01:52:31;;;;;;;13.95;10.45;;;;;;;10.95;74.15;99982.06;1088348;54;20130;-85
2022/05/02 01:53:33;;;;;;;10.27;9.05;;;;;;;10.89;74.09;99977.31;1094282;46;20039;-85
2022/05/02 01:56:50;;;;;;;13.13;10.05;;;;;;;10.97;74.23;99981.91;1069761;54;20944;31
2022/05/02 01:59:59;;;;;;;12.85;10.02;;;;;;;10.85;74.58;99981.28;1087791;54;20026;-84
2022/05/02 02:01:00;;;;;;;14.50;9.82;;;;;;;10.87;74.60;99976.59;1088510;54;20019;-84
2022/05/02 02:02:05;;;;;;;10.27;9.18;;;;;;;10.89;74.71;99982.66;1088455;54;20078;-85
2022/05/02 02:06:17;;;;;;;13.05;10.80;;;;;;;10.79;75.02;99979.19;1088412;54;20006;-85
2022/05/02 02:08:24;;;;;;;13.20;10.77;;;;;;;10.80;75.04;99976.38;1082502;54;20073;31
2022/05/02 02:09:28;;;;;;;12.10;10.65;;;;;;;10.83;74.79;99976.06;1088406;54;20014;-86
2022/05/02 02:12:37;;;;;;;14.57;11.73;;;;;;;10.73;75.20;99981.47;1087742;54;20022;-85
2022/05/02 02:14:47;;;;;;;12.82;11.50;;;;;;;10.68;75.10;99983.72;1088483;54;20067;-83
2022/05/02 02:15:49;;;;;;;12.65;11.10;;;;;;;10.68;74.97;99989.06;1088541;54;20023;-86
2022/05/02 02:16:54;;;;;;;12.02;10.18;;;;;;;10.69;75.16;99977.38;1088596;54;20033;-84
2022/05/02 02:17:55;;;;;;;11.88;9.90;;;;;;;10.75;74.91;99975.97;1088480;54;20074;-85
2022/05/02 02:19:01;;;;;;;11.52;9.75;;;;;;;10.74;74.80;99975.13;1088484;54;20030;-84
2022/05/02 02:20:04;;;;;;;13.45;10.80;;;;;;;10.66;74.94;99980.38;1088428;54;20035;-84
2022/05/02 02:21:11;;;;;;;12.98;10.80;;;;;;;10.66;75.09;99980.38;1088534;54;20014;-84
2022/05/02 02:22:18;;;;;;;11.23;10.02;;;;;;;10.70;74.79;99984.44;1088301;54;20038;-87
2022/05/02 02:24:25;;;;;;;10.93;9.75;;;;;;;10.73;74.50;99970.78;1087715;54;21207;-84
2022/05/02 02:25:29;;;;;;;12.82;10.88;;;;;;;10.67;75.06;99975.88;1088407;54;20694;-85
2022/05/02 02:26:35;;;;;;;12.25;10.63;;;;;;;10.55;75.34;99973.38;1088343;54;20038;-85
2022/05/02 02:29:46;;;;;;;13.73;10.65;;;;;;;10.45;75.92;99978.75;1069434;54;20097;31
2022/05/02 02:30:54;;;;;;;12.23;10.88;;;;;;;10.39;76.12;99978.50;1073926;54;20039;-83
2022/05/02 02:33:01;;;;;;;11.85;10.65;;;;;;;10.36;76.23;99978.75;1070001;54;20038;31
2022/05/02 02:34:07;;;;;;;12.95;11.55;;;;;;;10.33;76.28;99968.38;1069949;54;20905;31
2022/05/02 02:36:17;;;;;;;12.60;10.85;;;;;;;10.45;75.98;99970.75;1072976;54;20030;31
2022/05/02 02:37:24;;;;;;;11.80;10.40;;;;;;;10.45;75.81;99981.44;1069989;54;20982;31
2022/05/02 02:42:40;;;;;;;12.15;10.50;;;;;;;10.53;75.50;99974.50;1070256;54;21246;31
2022/05/02 02:43:48;;;;;;;13.30;10.82;;;;;;;10.48;75.91;99982.97;1091431;39;21087;31
2022/05/02 02:50:25;;;;;;;12.10;10.10;;;;;;;10.57;75.24;99966.06;1069514;54;20069;31
2022/05/02 02:51:28;;;;;;;12.00;10.30;;;;;;;10.61;75.37;99962.09;1073590;54;21093;31
2022/05/02 02:53:34;;;;;;;11.82;9.82;;;;;;;10.80;74.70;99967.50;1080606;47;20855;31
2022/05/02 02:54:38;;;;;;;12.20;10.75;;;;;;;10.85;74.84;99960.72;1069860;54;20947;31
2022/05/02 02:58:49;;;;;;;10.00;8.80;;;;;;;11.07;74.00;99946.09;1072879;39;21556;31
2022/05/02 02:59:57;;;;;;;11.88;9.13;;;;;;;11.10;73.89;99955.63;1073351;54;20051;31
2022/05/02 03:07:45;;;;;;;9.45;7.90;;;;;;;11.30;73.08;99951.03;1069796;54;20085;31
2022/05/02 03:08:51;;;;;;;11.10;9.35;;;;;;;11.34;73.21;99951.56;1077885;54;20065;31
2022/05/02 03:12:09;;;;;;;11.27;9.43;;;;;;;11.37;72.89;99954.75;1069535;54;20852;31
2022/05/02 03:13:14;;;;;;;11.13;9.07;;;;;;;11.37;72.87;99946.72;1070606;54;21049;31
2022/05/02 03:15:21;;;;;;;11.73;8.73;;;;;;;11.44;72.65;99946.97;1070328;54;21036;31
2022/05/02 03:16:38;;;;;;;12.48;9.55;;;;;;;11.38;73.25;99937.72;1081124;54;20058;-86
2022/05/02 03:22:09;;;;;;;11.80;9.50;;;;;;;11.41;73.42;99941.09;1082497;39;20760;-86
2022/05/02 03:24:36;;;;;;;12.05;9.55;;;;;;;11.33;73.38;99929.31;1074042;54;21050;31
2022/05/02 03:26:42;;;;;;;14.47;9.80;;;;;;;11.29;74.07;99935.13;1069823;54;21044;31
2022/05/02 03:27:44;;;;;;;10.55;8.93;;;;;;;11.34;73.65;99933.66;1070121;54;21057;-90
2022/05/02 03:31:58;;;;;;;10.30;8.68;;;;;;;11.44;73.55;99930.91;1089073;54;20015;-86
2022/05/02 03:34:05;;;;;;;9.02;8.00;;;;;;;11.49;73.18;99923.25;1076788;54;20026;31
2022/05/02 03:35:16;;;;;;;9.15;7.32;;;;;;;11.50;73.38;99927.59;1079801;54;20065;-85
2022/05/02 03:38:35;;;;;;;11.38;8.25;;;;;;;11.43;73.84;99928.41;1081833;54;20031;-85
2022/05/02 03:39:39;;;;;;;12.50;9.48;;;;;;;11.44;73.83;99930.91;1073972;54;20943;31
2022/05/02 03:41:46;;;;;;;10.82;9.48;;;;;;;11.43;73.81;99915.00;1070243;54;20105;31
2022/05/02 03:42:54;;;;;;;10.13;8.77;;;;;;;11.42;74.05;99922.19;1077932;54;20038;31
2022/05/02 03:47:36;;;;;;;8.30;7.40;;;;;;;11.43;73.93;99918.53;1070450;54;20545;31
2022/05/02 03:48:38;;;;;;;12.53;8.40;;;;;;;11.44;73.63;99911.31;1071723;54;20046;31
2022/05/02 03:53:21;;;;;;;10.88;9.27;;;;;;;11.32;74.15;99921.41;1074531;46;20035;-85
2022/05/02 03:54:25;;;;;;;15.80;10.35;;;;;;;11.24;74.28;99922.19;1083877;54;20027;31
2022/05/02 03:58:37;;;;;;;12.20;10.40;;;;;;;11.15;74.75;99923.09;1076335;54;21719;31
2022/05/02 04:01:00;;;;;;;11.60;10.40;;;;;;;11.19;74.33;99917.28;1081457;54;20165;-84
2022/05/02 04:05:13;;;;;;;10.52;8.57;;;;;;;11.32;73.85;99921.41;1071403;39;21570;31
2022/05/02 04:06:23;;;;;;;10.85;9.18;;;;;;;11.34;73.60;99925.63;1074492;54;21109;-84
2022/05/02 04:09:31;;;;;;;10.20;8.60;;;;;;;11.45;73.27;99916.53;1087904;54;20086;-85
2022/05/02 04:12:45;;;;;;;12.30;9.93;;;;;;;11.43;73.05;99923.03;1075864;54;21027;-84
2022/05/02 04:13:49;;;;;;;11.25;9.25;;;;;;;11.45;73.16;99923.72;1082465;54;21010;31
2022/05/02 04:17:02;;;;;;;11.18;9.85;;;;;;;11.37;73.15;99925.31;1082701;54;20033;-83
2022/05/02 04:18:17;;;;;;;12.05;10.20;;;;;;;11.38;73.42;99920.81;1080097;54;20835;-84
2022/05/02 04:19:24;;;;;;;11.85;9.70;;;;;;;11.38;72.77;99924.34;1087881;54;20026;31
2022/05/02 04:21:33;;;;;;;12.13;10.07;;;;;;;11.42;72.80;99921.34;1086516;54;20023;31
2022/05/02 04:22:40;;;;;;;11.52;9.73;;;;;;;11.41;73.02;99925.03;1081450;54;21045;31
2022/05/02 04:33:36;;;;;;;14.43;10.95;;;;;;;11.36;72.92;99929.00;1079623;54;20038;-86
2022/05/02 04:35:55;;;;;;;11.88;10.57;;;;;;;11.38;73.07;99928.84;1075220;54;21022;-86
2022/05/02 04:37:05;;;;;;;13.85;10.85;;;;;;;11.38;73.25;99927.00;1079382;54;20023;-86
2022/05/02 04:41:34;;;;;;;12.40;10.38;;;;;;;11.52;72.67;99927.47;1079626;54;20030;-85
2022/05/02 04:42:39;;;;;;;11.20;9.35;;;;;;;11.52;72.36;99919.44;1088501;54;20025;-86
2022/05/02 04:44:49;;;;;;;11.40;9.52;;;;;;;11.53;72.23;99931.81;1085779;54;20027;-86
2022/05/02 04:45:51;;;;;;;13.05;10.05;;;;;;;11.59;72.19;99935.72;1078344;54;21082;31
2022/05/02 04:49:02;;;;;;;11.48;8.82;;;;;;;11.67;71.92;99925.91;1076995;54;20042;31
2022/05/02 04:50:14;;;;;;;12.23;9.73;;;;;;;11.63;72.13;99932.56;1080737;31;20109;-85
2022/05/02 04:53:26;;;;;;;11.95;9.88;;;;;;;11.65;71.87;99932.44;1071120;54;20923;31
2022/05/02 04:54:41;;;;;;;13.00;10.18;;;;;;;11.67;71.59;99931.28;1079579;54;20059;-84
2022/05/02 04:55:45;;;;;;;12.50;10.80;;;;;;;11.68;71.94;99924.94;1088264;54;20035;-85
2022/05/02 04:56:49;;;;;;;13.98;10.40;;;;;;;11.66;71.91;99926.09;1088173;54;20041;-84
2022/05/02 04:57:53;;;;;;;12.50;9.60;;;;;;;11.67;71.79;99925.06;1088365;54;20030;-84
2022/05/02 04:58:57;;;;;;;12.60;10.02;;;;;;;11.73;71.56;99923.59;1088407;54;20033;-82
2022/05/02 04:59:59;;;;;;;12.18;9.63;;;;;;;11.74;71.67;99926.16;1088394;54;20019;-84
2022/05/02 05:01:03;;;;;;;11.85;9.85;;;;;;;11.73;71.46;99927.13;1088377;54;20035;-84
2022/05/02 05:02:05;;;;;;;11.68;10.30;;;;;;;11.71;71.75;99924.59;1088394;54;20030;-84
2022/05/02 05:03:09;;;;;;;11.18;9.98;;;;;;;11.79;71.56;99926.50;1088318;54;20111;-84
2022/05/02 05:04:11;;;;;;;11.73;10.07;;;;;;;11.77;71.43;99925.00;1088366;54;20019;-83
2022/05/02 05:05:16;;;;;;;12.40;9.98;;;;;;;11.77;71.69;99922.31;1088319;54;20035;-85
2022/05/02 05:06:20;;;;;;;12.00;9.38;;;;;;;11.81;71.50;99920.97;1088407;54;20030;-85
2022/05/02 05:07:24;;;;;;;11.80;10.55;;;;;;;11.78;71.31;99922.16;1088380;54;20061;-83
2022/05/02 05:08:26;;;;;;;14.48;12.50;;;;;;;11.69;71.50;99917.72;1088362;54;20038;-84
2022/05/02 05:09:30;;;;;;;13.68;11.48;;;;;;;11.58;71.71;99920.63;1088390;54;20025;-87
2022/05/02 05:10:42;;;;;;;16.17;12.02;;;;;;;11.56;71.60;99923.47;1088345;54;20007;-84
2022/05/02 05:11:54;;;;;;;14.70;12.23;;;;;;;11.51;71.83;99920.44;1088369;54;20018;-85
2022/05/02 05:13:05;;;;;;;13.48;11.45;;;;;;;11.58;71.89;99923.31;1088419;46;20073;-84
2022/05/02 05:17:38;;;;;;;13.05;10.88;;;;;;;11.66;71.72;99920.72;1088008;54;20019;-86
2022/05/02 05:19:12;;;;;;;12.05;10.52;;;;;;;11.76;71.38;99923.31;1088328;54;20718;-83
2022/05/02 05:20:20;;;;;;;13.18;10.32;;;;;;;11.80;71.10;99919.34;1088297;54;20030;-83
2022/05/02 05:21:34;;;;;;;12.55;10.77;;;;;;;11.86;71.07;99918.69;1088271;54;20033;-83
2022/05/02 05:22:52;;;;;;;9.90;8.63;;;;;;;11.94;70.63;99918.75;1088289;54;20046;-85
2022/05/02 05:24:16;;;;;;;9.50;8.50;;;;;;;12.06;70.41;99918.53;1088292;54;20015;-85
2022/05/02 05:25:45;;;;;;;11.02;8.43;;;;;;;12.13;70.08;99916.91;1088292;54;20018;-85
2022/05/02 05:26:58;;;;;;;11.40;9.13;;;;;;;12.11;69.72;99914.38;1087919;54;20038;-83
2022/05/02 05:28:36;;;;;;;11.13;9.88;;;;;;;12.07;70.01;99915.69;1087956;54;20034;-83
2022/05/02 05:29:47;;;;;;;9.95;8.88;;;;;;;12.13;69.57;99914.22;1087449;54;20047;-83
2022/05/02 05:30:59;;;;;;;10.68;9.63;;;;;;;12.14;69.71;99910.53;1088027;54;20014;-85
2022/05/02 05:32:14;;;;;;;14.18;11.70;;;;;;;12.01;69.73;99911.78;1088012;54;20034;-84
2022/05/02 05:33:28;;;;;;;14.27;11.32;;;;;;;11.93;69.94;99914.38;1087963;54;20019;-82
2022/05/02 05:34:44;;;;;;;13.65;12.15;;;;;;;11.93;70.21;99917.06;1087976;54;20034;-84
2022/05/02 05:36:04;;;;;;;11.70;10.50;;;;;;;12.02;69.84;99902.75;1088013;54;20064;-83
2022/05/02 05:37:53;;;;;;;11.35;10.15;;;;;;;12.05;70.03;99917.66;1088099;54;20040;-83
2022/05/02 05:39:05;;;;;;;11.45;10.15;;;;;;;12.08;69.77;99914.69;1087980;54;20034;-85
2022/05/02 05:40:16;;;;;;;12.43;10.55;;;;;;;12.10;69.89;99914.53;1087983;54;20038;-84
2022/05/02 05:41:32;;;;;;;13.45;10.90;;;;;;;12.11;69.92;99916.19;1088004;54;20034;-83
2022/05/02 05:42:45;;;;;;;11.13;9.95;;;;;;;12.17;69.61;99915.59;1087983;54;20864;-85
2022/05/02 05:44:08;;;;;;;13.57;10.30;;;;;;;12.14;69.26;99907.84;1087977;54;20034;-82
2022/05/02 05:45:19;;;;;;;12.73;11.43;;;;;;;12.12;69.66;99908.03;1087857;54;20014;-83
2022/05/02 05:46:29;;;;;;;;;;;;;;;12.05;69.83;99916.84;1087684;54;20113;-83
2022/05/02 05:47:55;;;;;;;12.02;9.82;;;;;;;12.10;69.87;99909.16;1088011;54;19938;-83
2022/05/02 05:49:11;;;;;;;15.38;11.05;;;;;;;12.16;69.72;99913.91;1088023;54;20027;-84
2022/05/02 05:50:21;;;;;;;15.35;12.27;;;;;;;12.12;69.69;99913.38;1087983;54;20018;-82
2022/05/02 05:51:36;;;;;;;16.80;12.43;;;;;;;12.00;70.10;99910.09;1089898;39;20760;-82
2022/05/02 05:53:06;;;;;;;16.02;12.48;;;;;;;11.90;70.04;99912.03;1087928;54;20046;-84
2022/05/02 05:54:37;;;;;;;15.00;12.38;;;;;;;11.82;70.48;99911.97;1087826;54;20023;-86
2022/05/02 05:56:04;;;;;;;13.38;11.40;;;;;;;11.93;70.32;99909.03;1087176;54;21244;-87
2022/05/02 05:57:20;;;;;;;14.18;10.57;;;;;;;12.07;69.88;99904.97;1087979;54;20038;-85
2022/05/02 05:58:28;;;;;;;11.43;9.90;;;;;;;12.20;69.50;99903.72;1087882;54;20050;-84
2022/05/02 05:59:51;;;;;;;10.88;9.48;;;;;;;12.24;69.43;99908.59;1088033;54;20037;-83
2022/05/02 06:01:01;;;;;;;13.00;10.02;;;;;;;12.30;69.14;99905.25;1089432;39;20790;-84
2022/05/02 06:02:08;;;;;;;;;;;;;;;12.13;69.56;99903.50;1087902;54;20033;-82
2022/05/02 06:03:16;;;;;;;13.40;9.85;;;;;;;12.26;69.61;99906.59;1087497;54;20007;-85
2022/05/02 06:04:19;;;;;;;14.30;11.73;;;;;;;12.25;69.50;99907.59;1087916;54;20022;-83
2022/05/02 06:05:24;;;;;;;12.93;11.63;;;;;;;12.25;69.21;99902.22;1088178;54;20077;-85
2022/05/02 06:06:29;;;;;;;13.93;11.65;;;;;;;12.36;68.97;99908.31;1088186;54;20038;-82
2022/05/02 06:07:34;;;;;;;11.90;10.45;;;;;;;12.41;69.19;99901.47;1096385;39;20642;-83
2022/05/02 06:08:39;;;;;;;14.18;10.70;;;;;;;12.41;69.21;99914.88;1088195;54;20014;-82
2022/05/02 06:09:43;;;;;;;13.70;11.00;;;;;;;12.44;68.79;99913.72;1088217;54;20023;-82
2022/05/02 06:10:49;;;;;;;14.02;12.50;;;;;;;12.47;68.72;99910.69;1088258;54;20041;-82
2022/05/02 06:11:55;;;;;;;15.13;12.15;;;;;;;12.53;68.49;99911.91;1088342;54;20018;-83
2022/05/02 06:13:01;;;;;;;13.95;11.20;;;;;;;12.57;68.29;99908.72;1088270;54;20030;-82
2022/05/02 06:14:03;;;;;;;14.00;10.27;;;;;;;12.64;68.07;99916.97;1088300;54;20042;-82
2022/05/02 06:19:13;;;;;;;13.30;11.30;;;;;;;12.63;67.99;99910.78;1087860;54;20687;-85
2022/05/02 06:20:15;;;;;;;11.02;9.93;;;;;;;12.74;67.85;99900.78;1088002;54;20042;-83
2022/05/02 06:21:24;;;;;;;11.95;10.50;;;;;;;12.77;68.00;99912.00;1088220;54;20019;-84
2022/05/02 06:22:28;;;;;;;12.40;10.85;;;;;;;12.74;67.79;99904.28;1088223;54;20094;-84
2022/05/02 06:23:35;;;;;;;11.80;10.20;;;;;;;12.84;67.44;99906.84;1088198;54;20053;-84
2022/05/02 06:24:39;;;;;;;13.80;11.75;;;;;;;12.83;67.82;99910.53;1089581;46;20038;-84
2022/05/02 06:26:49;;;;;;;12.32;11.02;;;;;;;12.72;67.66;99905.47;1088724;54;20085;-84
2022/05/02 06:27:52;;;;;;;14.27;12.77;;;;;;;12.70;67.72;99915.50;1088586;54;20023;-86
2022/05/02 06:28:56;;;;;;;12.43;11.13;;;;;;;12.62;68.05;99911.78;1088595;54;20011;-83
2022/05/02 06:30:01;;;;;;;14.30;12.80;;;;;;;12.59;68.24;99914.78;1088648;47;20018;-84
2022/05/02 06:31:15;;;;;;;15.48;12.90;;;;;;;12.49;68.05;99914.06;1088307;54;20091;-82
2022/05/02 06:33:23;;;;;;;15.35;13.18;;;;;;;12.49;68.65;99916.75;1088215;54;20034;-83
2022/05/02 06:35:34;;;;;;;13.10;11.32;;;;;;;12.69;68.18;99916.50;1088568;54;20021;-84
2022/05/02 06:49:18;;;;;;;12.48;10.90;;;;;;;13.07;66.62;99911.59;1087883;54;20036;-79
2022/05/02 06:50:24;;;;;;;13.40;12.00;;;;;;;12.99;66.77;99915.06;1090482;46;20153;-81
2022/05/02 06:51:33;;;;;;;13.43;10.40;;;;;;;13.18;66.80;99913.97;1089195;46;20058;-81
2022/05/02 06:52:40;;;;;;;10.95;9.75;;;;;;;13.32;66.23;99906.28;1088003;54;20033;-81
2022/05/02 06:54:08;;;;;;;14.20;10.55;;;;;;;13.32;66.09;99904.41;1088340;54;20351;-78
2022/05/02 06:55:22;;;;;;;15.63;11.73;;;;;;;13.30;65.13;99902.91;1092045;46;20038;-77
2022/05/02 06:56:32;;;;;;;14.60;12.65;;;;;;;13.21;65.67;99913.63;1088519;54;20736;-77
2022/05/02 06:57:42;;;;;;;;;;;;;;;13.11;65.95;99907.59;1095069;46;20018;-82
2022/05/02 06:58:52;;;;;;;16.15;12.57;;;;;;;13.22;65.69;99899.22;1088578;54;20656;-82
2022/05/02 07:00:06;;;;;;;14.90;12.23;;;;;;;13.22;65.61;99904.59;1088493;54;20034;-82
2022/05/02 07:01:21;;;;;;;14.25;12.48;;;;;;;13.29;65.46;99903.91;1088471;54;20094;-82
2022/05/02 07:03:04;;;;;;;13.82;12.05;;;;;;;13.26;65.64;99899.72;1088587;54;20022;-83
2022/05/02 07:04:31;;;;;;;13.60;11.23;;;;;;;13.45;65.28;99895.91;1088471;54;20049;-83
2022/05/02 07:05:45;;;;;;;12.77;10.82;;;;;;;13.59;64.73;99904.31;1088439;54;20019;-82
2022/05/02 07:07:05;;;;;;;13.88;10.50;;;;;;;13.74;64.44;99902.59;1088519;54;20014;-82
2022/05/02 07:08:09;;;;;;;16.13;11.98;;;;;;;13.81;64.30;99903.59;1088399;54;20030;-80
2022/05/02 07:09:18;;;;;;;15.02;11.57;;;;;;;13.81;63.78;99906.28;1088103;54;20034;-81
2022/05/02 07:10:25;;;;;;;14.70;12.15;;;;;;;13.76;63.96;99900.59;1088372;54;20030;-80
2022/05/02 07:11:37;;;;;;;17.67;13.23;;;;;;;13.75;64.19;99904.28;1088418;54;20026;-81
2022/05/02 07:12:45;;;;;;;12.27;10.95;;;;;;;13.83;63.99;99909.66;1088504;54;20031;-81
2022/05/02 07:14:06;;;;;;;11.95;10.10;;;;;;;13.93;63.84;99901.44;1088395;54;20035;-82
2022/05/02 07:15:12;;;;;;;11.15;9.60;;;;;;;14.08;63.75;99903.41;1088461;54;20038;-81
2022/05/02 07:16:24;;;;;;;11.45;10.18;;;;;;;14.06;63.53;99897.34;1088534;54;20107;-82
2022/05/02 07:17:40;;;;;;;11.95;10.60;;;;;;;14.14;63.21;99900.88;1088520;54;20065;-83
2022/05/02 07:18:52;;;;;;;14.75;13.18;;;;;;;14.14;63.43;99894.66;1088684;46;20061;-82
2022/05/02 07:20:05;;;;;;;15.10;11.02;;;;;;;14.21;63.33;99895.66;1088459;54;20022;-81
2022/05/02 07:21:26;;;;;;;14.52;11.48;;;;;;;14.16;63.00;99888.09;1088418;54;20030;-84
2022/05/02 07:22:37;;;;;;;12.77;11.48;;;;;;;14.11;62.98;99889.63;1088542;54;20760;-83
2022/05/02 07:23:54;;;;;;;11.85;10.65;;;;;;;14.22;63.02;99899.16;1088350;54;20036;-81
2022/05/02 07:26:09;;;;;;;11.95;10.30;;;;;;;14.16;62.98;99898.88;1085928;54;20034;-77
2022/05/02 07:27:21;;;;;;;10.98;9.23;;;;;;;14.31;62.66;99893.59;1086971;54;20693;-77
2022/05/02 07:28:32;;;;;;;14.18;9.90;;;;;;;14.37;62.86;99894.75;1086987;54;20046;-78
2022/05/02 07:29:39;;;;;;;11.25;9.93;;;;;;;14.45;62.25;99893.88;1086947;54;20030;-77
2022/05/02 07:30:42;;;;;;;10.68;8.77;;;;;;;14.49;62.34;99901.44;1087180;54;20045;-78
2022/05/02 07:31:49;;;;;;;9.50;8.48;;;;;;;14.56;62.48;99895.34;1087026;54;20158;-77
2022/05/02 07:32:53;;;;;;;10.70;9.00;;;;;;;14.59;61.90;99889.63;1087196;46;20035;-77
2022/05/02 07:34:01;;;;;;;9.27;8.23;;;;;;;14.77;61.68;99892.09;1086999;54;20583;-76
2022/05/02 07:35:06;;;;;;;10.88;8.48;;;;;;;14.89;61.31;99895.22;1086941;54;20035;-78
2022/05/02 07:36:17;;;;;;;10.65;8.77;;;;;;;14.88;61.28;99901.63;1087218;54;20053;-78
2022/05/02 07:37:23;;;;;;;11.55;9.70;;;;;;;14.95;61.13;99894.53;1087082;54;20042;-78
2022/05/02 07:38:29;;;;;;;11.63;9.00;;;;;;;15.08;60.83;99894.78;1086764;54;20061;-77
2022/05/02 07:39:37;;;;;;;9.10;8.02;;;;;;;15.31;60.34;99888.56;1087202;54;20042;-77
2022/05/02 07:41:22;;;;;;;9.77;8.70;;;;;;;15.44;59.68;99882.59;1087819;46;20034;-78
2022/05/02 07:42:09;;;;;;;11.60;8.77;;;;;;;15.55;59.59;99886.69;1086493;54;20065;-77
2022/05/02 07:43:13;;;;;;;13.35;9.82;;;;;;;15.61;59.17;99880.56;1086546;54;20042;-78
2022/05/02 07:44:20;;;;;;;10.57;9.23;;;;;;;15.75;58.81;99885.19;1087003;54;20050;-78
2022/05/02 07:45:27;;;;;;;11.10;9.45;;;;;;;15.87;58.27;99887.47;1087091;46;20038;-77
2022/05/02 07:46:35;;;;;;;11.75;8.25;;;;;;;16.02;58.01;99882.06;1087031;54;20130;-78
2022/05/02 07:47:43;;;;;;;10.15;8.82;;;;;;;16.22;57.82;99879.69;1086778;54;20630;-77
2022/05/02 07:48:46;;;;;;;10.82;9.73;;;;;;;16.19;57.39;99882.75;1086767;54;20396;-78
2022/05/02 07:49:51;;;;;;;11.77;8.90;;;;;;;16.34;56.96;99875.47;1087104;46;20034;-77
2022/05/02 07:50:57;;;;;;;10.57;8.15;;;;;;;16.50;56.55;99877.16;1087040;54;20039;-77
2022/05/02 07:52:03;;;;;;;10.38;8.77;;;;;;;16.71;56.45;99877.41;1086927;54;20049;-77
2022/05/02 07:53:09;;;;;;;10.20;8.50;;;;;;;16.82;55.83;99869.66;1086978;54;20053;-79
2022/05/02 07:54:17;;;;;;;11.30;8.80;;;;;;;16.91;54.60;99874.94;1087486;39;20476;-77
2022/05/02 07:55:24;;;;;;;10.98;8.55;;;;;;;16.97;54.65;99875.03;1086852;54;20094;-77
2022/05/02 07:56:28;;;;;;;10.85;9.00;;;;;;;17.12;54.08;99879.53;1088514;39;20650;-77
2022/05/02 07:57:38;;;;;;;9.32;7.82;;;;;;;17.18;52.69;99876.09;1087053;54;20146;-77
2022/05/02 07:58:40;;;;;;;11.40;8.70;;;;;;;17.09;53.36;99869.16;1086450;54;20098;-78
2022/05/02 07:59:46;;;;;;;11.07;9.05;;;;;;;17.06;52.84;99869.53;1086873;54;20026;-78
2022/05/02 08:00:50;;;;;;;12.98;9.25;;;;;;;17.07;52.63;99873.91;1086785;54;20642;-79
2022/05/02 08:01:54;;;;;;;10.05;8.45;;;;;;;17.31;52.65;99869.97;1086780;54;20035;-78
2022/05/02 08:02:58;;;;;;;10.68;8.40;;;;;;;17.47;51.73;99874.28;1086897;54;20065;-78
2022/05/02 08:04:00;;;;;;;11.15;9.05;;;;;;;17.27;51.44;99874.09;1086245;54;20038;-77
2022/05/02 08:05:06;;;;;;;11.93;10.15;;;;;;;17.12;50.65;99868.75;1086060;54;20048;-80